sensor_id;sensor_type;location;lat;lon;timestamp;temperature;humidity
37938;DHT22;23763;48.130;11.602;2023-04-03T00:01:01;3.50;99.90
37938;DHT22;23763;48.130;11.602;2023-04-03T00:03:27;3.50;99.90
37938;DHT22;23763;48.130;11.602;2023-04-03T00:05:52;3.50;99.90
37938;DHT22;23763;48.130;11.602;2023-04-03T00:08:18;3.50;99.90
37938;DHT22;23763;48.130;11.602;2023-04-03T00:10:44;3.40;99.90
37938;DHT22;23763;48.130;11.602;2023-04-03T00:13:10;3.50;99.90
37938;DHT22;23763;48.130;11.602;2023-04-03T00:15:37;3.50;99.90
37938;DHT22;23763;48.130;11.602;2023-04-03T00:18:03;3.40;99.90
37938;DHT22;23763;48.130;11.602;2023-04-03T00:20:29;3.40;99.90
37938;DHT22;23763;48.130;11.602;2023-04-03T00:22:55;3.30;99.90
37938;DHT22;23763;48.130;11.602;2023-04-03T00:25:21;3.30;99.90
37938;DHT22;23763;48.130;11.602;2023-04-03T00:27:46;3.30;99.90
37938;DHT22;23763;48.130;11.602;2023-04-03T00:30:15;3.40;99.90
37938;DHT22;23763;48.130;11.602;2023-04-03T00:32:41;3.40;99.90
37938;DHT22;23763;48.130;11.602;2023-04-03T00:35:07;3.40;99.90
37938;DHT22;23763;48.130;11.602;2023-04-03T00:37:33;3.30;99.90
37938;DHT22;23763;48.130;11.602;2023-04-03T00:39:58;3.30;99.90
37938;DHT22;23763;48.130;11.602;2023-04-03T00:42:24;3.30;99.90
37938;DHT22;23763;48.130;11.602;2023-04-03T00:47:21;3.40;99.90
37938;DHT22;23763;48.130;11.602;2023-04-03T00:49:49;3.50;99.90
37938;DHT22;23763;48.130;11.602;2023-04-03T00:52:17;3.50;99.90
37938;DHT22;23763;48.130;11.602;2023-04-03T00:54:45;3.40;99.90
37938;DHT22;23763;48.130;11.602;2023-04-03T00:57:13;3.50;99.90
37938;DHT22;23763;48.130;11.602;2023-04-03T00:59:44;3.50;99.90
37938;DHT22;23763;48.130;11.602;2023-04-03T01:02:11;3.40;99.90
37938;DHT22;23763;48.130;11.602;2023-04-03T01:04:39;3.40;99.90
37938;DHT22;23763;48.130;11.602;2023-04-03T01:07:18;3.40;99.90
37938;DHT22;23763;48.130;11.602;2023-04-03T01:09:48;3.40;99.90
37938;DHT22;23763;48.130;11.602;2023-04-03T01:12:22;3.40;99.90
37938;DHT22;23763;48.130;11.602;2023-04-03T01:15:01;3.70;99.90
37938;DHT22;23763;48.130;11.602;2023-04-03T01:20:46;3.50;99.90
37938;DHT22;23763;48.130;11.602;2023-04-03T01:25:50;3.40;99.90
37938;DHT22;23763;48.130;11.602;2023-04-03T01:28:20;3.40;99.90
37938;DHT22;23763;48.130;11.602;2023-04-03T01:30:51;3.50;99.90
37938;DHT22;23763;48.130;11.602;2023-04-03T01:33:18;3.40;99.90
37938;DHT22;23763;48.130;11.602;2023-04-03T01:35:44;3.40;99.90
37938;DHT22;23763;48.130;11.602;2023-04-03T01:38:10;3.40;99.90
37938;DHT22;23763;48.130;11.602;2023-04-03T01:40:35;3.50;99.90
37938;DHT22;23763;48.130;11.602;2023-04-03T01:43:01;3.50;99.90
37938;DHT22;23763;48.130;11.602;2023-04-03T01:45:27;3.50;99.90
37938;DHT22;23763;48.130;11.602;2023-04-03T01:47:52;3.50;99.90
37938;DHT22;23763;48.130;11.602;2023-04-03T01:50:18;3.50;99.90
37938;DHT22;23763;48.130;11.602;2023-04-03T01:52:43;3.60;99.90
37938;DHT22;23763;48.130;11.602;2023-04-03T01:55:09;3.50;99.90
37938;DHT22;23763;48.130;11.602;2023-04-03T01:57:35;3.40;99.90
37938;DHT22;23763;48.130;11.602;2023-04-03T02:00:00;3.30;99.90
37938;DHT22;23763;48.130;11.602;2023-04-03T02:02:26;3.60;99.90
37938;DHT22;23763;48.130;11.602;2023-04-03T02:04:52;3.40;99.90
37938;DHT22;23763;48.130;11.602;2023-04-03T02:07:17;3.40;99.90
37938;DHT22;23763;48.130;11.602;2023-04-03T02:09:43;3.50;99.90
37938;DHT22;23763;48.130;11.602;2023-04-03T02:12:09;3.50;99.90
37938;DHT22;23763;48.130;11.602;2023-04-03T02:14:34;3.50;99.90
37938;DHT22;23763;48.130;11.602;2023-04-03T02:17:01;3.50;99.90
37938;DHT22;23763;48.130;11.602;2023-04-03T02:19:30;3.50;99.90
37938;DHT22;23763;48.130;11.602;2023-04-03T02:21:56;3.50;99.90
37938;DHT22;23763;48.130;11.602;2023-04-03T02:24:22;3.80;99.90
37938;DHT22;23763;48.130;11.602;2023-04-03T02:26:47;3.50;99.90
37938;DHT22;23763;48.130;11.602;2023-04-03T02:29:13;3.50;99.90
37938;DHT22;23763;48.130;11.602;2023-04-03T02:31:38;3.70;99.90
37938;DHT22;23763;48.130;11.602;2023-04-03T02:34:04;3.60;99.90
37938;DHT22;23763;48.130;11.602;2023-04-03T02:36:29;3.60;99.90
37938;DHT22;23763;48.130;11.602;2023-04-03T02:38:55;3.60;99.90
37938;DHT22;23763;48.130;11.602;2023-04-03T02:41:21;3.60;99.90
37938;DHT22;23763;48.130;11.602;2023-04-03T02:43:46;3.70;99.90
37938;DHT22;23763;48.130;11.602;2023-04-03T02:46:12;3.50;99.90
37938;DHT22;23763;48.130;11.602;2023-04-03T02:48:40;3.50;99.90
37938;DHT22;23763;48.130;11.602;2023-04-03T02:51:05;3.60;99.90
37938;DHT22;23763;48.130;11.602;2023-04-03T02:53:31;3.50;99.90
37938;DHT22;23763;48.130;11.602;2023-04-03T02:55:57;3.50;99.90
37938;DHT22;23763;48.130;11.602;2023-04-03T02:58:22;3.50;99.90
37938;DHT22;23763;48.130;11.602;2023-04-03T03:00:48;3.60;99.90
37938;DHT22;23763;48.130;11.602;2023-04-03T03:03:14;3.40;99.90
37938;DHT22;23763;48.130;11.602;2023-04-03T03:05:40;3.60;99.90
37938;DHT22;23763;48.130;11.602;2023-04-03T03:08:05;3.60;99.90
37938;DHT22;23763;48.130;11.602;2023-04-03T03:10:31;3.70;99.90
37938;DHT22;23763;48.130;11.602;2023-04-03T03:12:57;3.70;99.90
37938;DHT22;23763;48.130;11.602;2023-04-03T03:15:22;3.70;99.90
37938;DHT22;23763;48.130;11.602;2023-04-03T03:17:48;3.80;99.90
37938;DHT22;23763;48.130;11.602;2023-04-03T03:20:14;3.80;99.90
37938;DHT22;23763;48.130;11.602;2023-04-03T03:22:40;3.80;99.90
37938;DHT22;23763;48.130;11.602;2023-04-03T03:25:06;3.80;99.90
37938;DHT22;23763;48.130;11.602;2023-04-03T03:27:32;3.90;99.90
37938;DHT22;23763;48.130;11.602;2023-04-03T03:29:58;3.90;99.90
37938;DHT22;23763;48.130;11.602;2023-04-03T03:32:23;3.90;99.90
37938;DHT22;23763;48.130;11.602;2023-04-03T03:34:49;3.90;99.90
37938;DHT22;23763;48.130;11.602;2023-04-03T03:37:15;3.90;99.90
37938;DHT22;23763;48.130;11.602;2023-04-03T03:39:40;3.90;99.90
37938;DHT22;23763;48.130;11.602;2023-04-03T03:42:06;3.90;99.90
37938;DHT22;23763;48.130;11.602;2023-04-03T03:44:31;4.00;99.90
37938;DHT22;23763;48.130;11.602;2023-04-03T03:46:57;3.90;99.90
37938;DHT22;23763;48.130;11.602;2023-04-03T03:49:23;3.90;99.90
37938;DHT22;23763;48.130;11.602;2023-04-03T03:51:48;3.90;99.90
37938;DHT22;23763;48.130;11.602;2023-04-03T03:54:14;3.90;99.90
37938;DHT22;23763;48.130;11.602;2023-04-03T03:56:39;3.90;99.90
37938;DHT22;23763;48.130;11.602;2023-04-03T03:59:05;3.90;99.90
37938;DHT22;23763;48.130;11.602;2023-04-03T04:01:32;3.90;99.90
37938;DHT22;23763;48.130;11.602;2023-04-03T04:03:57;3.90;99.90
37938;DHT22;23763;48.130;11.602;2023-04-03T04:06:23;3.80;99.90
37938;DHT22;23763;48.130;11.602;2023-04-03T04:08:49;3.90;99.90
37938;DHT22;23763;48.130;11.602;2023-04-03T04:11:14;3.90;99.90
37938;DHT22;23763;48.130;11.602;2023-04-03T04:13:40;3.90;99.90
37938;DHT22;23763;48.130;11.602;2023-04-03T04:16:06;4.00;99.90
37938;DHT22;23763;48.130;11.602;2023-04-03T04:18:32;4.00;99.90
37938;DHT22;23763;48.130;11.602;2023-04-03T04:20:58;3.90;99.90
37938;DHT22;23763;48.130;11.602;2023-04-03T04:23:23;3.90;99.90
37938;DHT22;23763;48.130;11.602;2023-04-03T04:25:49;3.90;99.90
37938;DHT22;23763;48.130;11.602;2023-04-03T04:28:16;3.90;99.90
37938;DHT22;23763;48.130;11.602;2023-04-03T04:30:41;3.90;99.90
37938;DHT22;23763;48.130;11.602;2023-04-03T04:33:07;3.90;99.90
37938;DHT22;23763;48.130;11.602;2023-04-03T04:35:33;3.90;99.90
37938;DHT22;23763;48.130;11.602;2023-04-03T04:37:59;4.10;99.90
37938;DHT22;23763;48.130;11.602;2023-04-03T04:40:25;3.90;99.90
37938;DHT22;23763;48.130;11.602;2023-04-03T04:42:51;3.90;99.90
37938;DHT22;23763;48.130;11.602;2023-04-03T04:45:17;4.00;99.90
37938;DHT22;23763;48.130;11.602;2023-04-03T04:47:42;3.90;99.90
37938;DHT22;23763;48.130;11.602;2023-04-03T04:50:08;3.90;99.90
37938;DHT22;23763;48.130;11.602;2023-04-03T04:52:34;4.00;99.90
37938;DHT22;23763;48.130;11.602;2023-04-03T04:55:00;4.00;99.90
37938;DHT22;23763;48.130;11.602;2023-04-03T04:57:25;3.90;99.90
37938;DHT22;23763;48.130;11.602;2023-04-03T04:59:51;4.00;99.90
37938;DHT22;23763;48.130;11.602;2023-04-03T05:02:17;4.00;99.90
37938;DHT22;23763;48.130;11.602;2023-04-03T05:04:42;4.10;99.90
37938;DHT22;23763;48.130;11.602;2023-04-03T05:07:08;4.00;99.90
37938;DHT22;23763;48.130;11.602;2023-04-03T05:09:34;3.90;99.90
37938;DHT22;23763;48.130;11.602;2023-04-03T05:11:59;3.90;99.90
37938;DHT22;23763;48.130;11.602;2023-04-03T05:14:25;4.00;99.90
37938;DHT22;23763;48.130;11.602;2023-04-03T05:16:51;3.90;99.90
37938;DHT22;23763;48.130;11.602;2023-04-03T05:19:20;3.90;99.90
37938;DHT22;23763;48.130;11.602;2023-04-03T05:21:46;4.00;99.90
37938;DHT22;23763;48.130;11.602;2023-04-03T05:24:13;4.00;99.90
37938;DHT22;23763;48.130;11.602;2023-04-03T05:26:39;4.00;99.90
37938;DHT22;23763;48.130;11.602;2023-04-03T05:29:04;4.10;99.90
37938;DHT22;23763;48.130;11.602;2023-04-03T05:31:30;4.00;99.90
37938;DHT22;23763;48.130;11.602;2023-04-03T05:33:56;4.10;99.90
37938;DHT22;23763;48.130;11.602;2023-04-03T05:36:22;4.10;99.90
37938;DHT22;23763;48.130;11.602;2023-04-03T05:38:47;4.10;99.90
37938;DHT22;23763;48.130;11.602;2023-04-03T05:41:14;4.10;99.90
37938;DHT22;23763;48.130;11.602;2023-04-03T05:43:40;4.10;99.90
37938;DHT22;23763;48.130;11.602;2023-04-03T05:46:14;4.10;99.90
37938;DHT22;23763;48.130;11.602;2023-04-03T05:48:40;4.00;99.90
37938;DHT22;23763;48.130;11.602;2023-04-03T05:51:07;4.10;99.90
37938;DHT22;23763;48.130;11.602;2023-04-03T05:53:37;4.10;99.90
37938;DHT22;23763;48.130;11.602;2023-04-03T05:56:03;4.10;99.90
37938;DHT22;23763;48.130;11.602;2023-04-03T05:58:29;4.20;99.90
37938;DHT22;23763;48.130;11.602;2023-04-03T06:00:54;4.10;99.90
37938;DHT22;23763;48.130;11.602;2023-04-03T06:03:20;4.20;99.90
37938;DHT22;23763;48.130;11.602;2023-04-03T06:05:46;4.20;99.90
37938;DHT22;23763;48.130;11.602;2023-04-03T06:08:12;4.30;99.90
37938;DHT22;23763;48.130;11.602;2023-04-03T06:10:38;4.40;99.90
37938;DHT22;23763;48.130;11.602;2023-04-03T06:13:04;4.40;99.90
37938;DHT22;23763;48.130;11.602;2023-04-03T06:15:30;4.40;99.90
37938;DHT22;23763;48.130;11.602;2023-04-03T06:17:55;4.40;99.90
37938;DHT22;23763;48.130;11.602;2023-04-03T06:20:21;4.50;99.90
37938;DHT22;23763;48.130;11.602;2023-04-03T06:22:47;4.50;99.90
37938;DHT22;23763;48.130;11.602;2023-04-03T06:25:13;4.50;99.90
37938;DHT22;23763;48.130;11.602;2023-04-03T06:27:40;4.50;99.90
37938;DHT22;23763;48.130;11.602;2023-04-03T06:30:06;4.60;99.90
37938;DHT22;23763;48.130;11.602;2023-04-03T06:32:32;4.60;99.90
37938;DHT22;23763;48.130;11.602;2023-04-03T06:34:57;4.60;99.90
37938;DHT22;23763;48.130;11.602;2023-04-03T06:37:24;4.60;99.90
37938;DHT22;23763;48.130;11.602;2023-04-03T06:39:54;4.60;99.90
37938;DHT22;23763;48.130;11.602;2023-04-03T06:42:20;4.70;99.90
37938;DHT22;23763;48.130;11.602;2023-04-03T06:44:46;4.70;99.90
37938;DHT22;23763;48.130;11.602;2023-04-03T06:47:16;4.80;99.90
37938;DHT22;23763;48.130;11.602;2023-04-03T06:49:42;4.90;99.90
37938;DHT22;23763;48.130;11.602;2023-04-03T06:52:08;5.00;99.90
37938;DHT22;23763;48.130;11.602;2023-04-03T06:54:34;4.80;99.90
37938;DHT22;23763;48.130;11.602;2023-04-03T06:56:59;4.90;99.90
37938;DHT22;23763;48.130;11.602;2023-04-03T06:59:26;4.90;99.90
37938;DHT22;23763;48.130;11.602;2023-04-03T07:01:52;5.00;99.90
37938;DHT22;23763;48.130;11.602;2023-04-03T07:04:17;5.00;99.90
37938;DHT22;23763;48.130;11.602;2023-04-03T07:06:45;5.00;99.90
37938;DHT22;23763;48.130;11.602;2023-04-03T07:09:12;5.10;99.90
37938;DHT22;23763;48.130;11.602;2023-04-03T07:11:38;5.20;99.90
37938;DHT22;23763;48.130;11.602;2023-04-03T07:14:04;5.30;99.90
37938;DHT22;23763;48.130;11.602;2023-04-03T07:16:31;5.40;99.90
37938;DHT22;23763;48.130;11.602;2023-04-03T07:18:57;5.40;99.90
37938;DHT22;23763;48.130;11.602;2023-04-03T07:21:23;5.50;99.90
37938;DHT22;23763;48.130;11.602;2023-04-03T07:23:49;5.40;99.90
37938;DHT22;23763;48.130;11.602;2023-04-03T07:26:15;5.50;99.90
37938;DHT22;23763;48.130;11.602;2023-04-03T07:28:41;5.50;99.90
37938;DHT22;23763;48.130;11.602;2023-04-03T07:31:09;5.60;99.90
37938;DHT22;23763;48.130;11.602;2023-04-03T07:33:37;5.80;99.90
37938;DHT22;23763;48.130;11.602;2023-04-03T07:36:04;5.90;99.90
37938;DHT22;23763;48.130;11.602;2023-04-03T07:38:32;6.00;99.90
37938;DHT22;23763;48.130;11.602;2023-04-03T07:40:58;6.00;99.90
37938;DHT22;23763;48.130;11.602;2023-04-03T07:43:24;5.90;99.90
37938;DHT22;23763;48.130;11.602;2023-04-03T07:45:50;5.80;99.90
37938;DHT22;23763;48.130;11.602;2023-04-03T07:48:18;5.80;99.90
37938;DHT22;23763;48.130;11.602;2023-04-03T07:50:44;5.80;99.90
37938;DHT22;23763;48.130;11.602;2023-04-03T07:53:10;5.60;99.90
37938;DHT22;23763;48.130;11.602;2023-04-03T07:55:36;5.60;99.90
37938;DHT22;23763;48.130;11.602;2023-04-03T07:58:11;5.60;99.90
37938;DHT22;23763;48.130;11.602;2023-04-03T08:00:38;5.60;99.90
37938;DHT22;23763;48.130;11.602;2023-04-03T08:03:05;5.60;99.90
37938;DHT22;23763;48.130;11.602;2023-04-03T08:05:31;5.60;99.90
37938;DHT22;23763;48.130;11.602;2023-04-03T08:08:01;5.50;99.90
37938;DHT22;23763;48.130;11.602;2023-04-03T08:10:26;5.40;99.90
37938;DHT22;23763;48.130;11.602;2023-04-03T08:12:53;5.40;99.90
37938;DHT22;23763;48.130;11.602;2023-04-03T08:15:19;5.40;99.90
37938;DHT22;23763;48.130;11.602;2023-04-03T08:17:45;5.40;99.90
37938;DHT22;23763;48.130;11.602;2023-04-03T08:20:11;5.60;99.90
37938;DHT22;23763;48.130;11.602;2023-04-03T08:22:37;5.70;99.90
37938;DHT22;23763;48.130;11.602;2023-04-03T08:25:03;5.90;99.90
37938;DHT22;23763;48.130;11.602;2023-04-03T08:27:29;5.90;99.90
37938;DHT22;23763;48.130;11.602;2023-04-03T08:29:55;6.00;99.90
37938;DHT22;23763;48.130;11.602;2023-04-03T08:32:22;6.10;99.90
37938;DHT22;23763;48.130;11.602;2023-04-03T08:34:48;6.20;99.90
37938;DHT22;23763;48.130;11.602;2023-04-03T08:37:14;6.20;99.90
37938;DHT22;23763;48.130;11.602;2023-04-03T08:39:42;6.20;99.90
37938;DHT22;23763;48.130;11.602;2023-04-03T08:45:10;6.20;99.90
37938;DHT22;23763;48.130;11.602;2023-04-03T08:47:38;6.40;99.90
37938;DHT22;23763;48.130;11.602;2023-04-03T08:50:11;6.50;99.90
37938;DHT22;23763;48.130;11.602;2023-04-03T08:52:41;6.50;99.90
37938;DHT22;23763;48.130;11.602;2023-04-03T08:55:28;6.60;99.90
37938;DHT22;23763;48.130;11.602;2023-04-03T08:58:06;6.60;99.90
37938;DHT22;23763;48.130;11.602;2023-04-03T09:00:46;6.60;99.90
37938;DHT22;23763;48.130;11.602;2023-04-03T09:03:16;6.60;99.90
37938;DHT22;23763;48.130;11.602;2023-04-03T09:05:57;6.80;99.90
37938;DHT22;23763;48.130;11.602;2023-04-03T09:08:33;6.90;99.90
37938;DHT22;23763;48.130;11.602;2023-04-03T09:14:02;6.50;99.90
37938;DHT22;23763;48.130;11.602;2023-04-03T09:22:09;6.40;99.90
37938;DHT22;23763;48.130;11.602;2023-04-03T09:24:38;6.40;99.90
37938;DHT22;23763;48.130;11.602;2023-04-03T09:27:05;6.50;99.90
37938;DHT22;23763;48.130;11.602;2023-04-03T09:29:36;6.70;99.90
37938;DHT22;23763;48.130;11.602;2023-04-03T09:32:25;7.10;99.90
37938;DHT22;23763;48.130;11.602;2023-04-03T09:34:52;7.00;99.90
37938;DHT22;23763;48.130;11.602;2023-04-03T09:37:40;7.00;99.90
37938;DHT22;23763;48.130;11.602;2023-04-03T09:43:01;6.90;99.90
37938;DHT22;23763;48.130;11.602;2023-04-03T09:50:59;6.90;99.90
37938;DHT22;23763;48.130;11.602;2023-04-03T09:53:38;6.80;99.90
37938;DHT22;23763;48.130;11.602;2023-04-03T09:56:25;6.90;99.90
37938;DHT22;23763;48.130;11.602;2023-04-03T10:01:32;7.20;99.90
37938;DHT22;23763;48.130;11.602;2023-04-03T10:04:18;7.30;99.90
37938;DHT22;23763;48.130;11.602;2023-04-03T10:06:55;7.40;99.90
37938;DHT22;23763;48.130;11.602;2023-04-03T10:09:23;7.20;99.90
37938;DHT22;23763;48.130;11.602;2023-04-03T10:12:10;7.00;99.90
37938;DHT22;23763;48.130;11.602;2023-04-03T10:23:18;6.20;99.90
37938;DHT22;23763;48.130;11.602;2023-04-03T10:31:25;5.90;99.90
37938;DHT22;23763;48.130;11.602;2023-04-03T10:34:06;5.90;99.90
37938;DHT22;23763;48.130;11.602;2023-04-03T10:39:59;5.70;99.90
37938;DHT22;23763;48.130;11.602;2023-04-03T10:43:02;5.50;99.90
37938;DHT22;23763;48.130;11.602;2023-04-03T10:46:00;5.40;99.90
37938;DHT22;23763;48.130;11.602;2023-04-03T10:48:40;5.20;99.90
37938;DHT22;23763;48.130;11.602;2023-04-03T10:54:41;5.10;99.90
37938;DHT22;23763;48.130;11.602;2023-04-03T10:57:10;4.80;99.90
37938;DHT22;23763;48.130;11.602;2023-04-03T10:59:45;4.70;99.90
37938;DHT22;23763;48.130;11.602;2023-04-03T11:02:23;4.70;99.90
37938;DHT22;23763;48.130;11.602;2023-04-03T11:04:53;4.60;99.90
37938;DHT22;23763;48.130;11.602;2023-04-03T11:07:37;4.80;99.90
37938;DHT22;23763;48.130;11.602;2023-04-03T11:10:23;4.80;99.90
37938;DHT22;23763;48.130;11.602;2023-04-03T11:13:02;4.90;99.90
37938;DHT22;23763;48.130;11.602;2023-04-03T11:15:32;5.20;99.90
37938;DHT22;23763;48.130;11.602;2023-04-03T11:18:15;5.30;99.90
37938;DHT22;23763;48.130;11.602;2023-04-03T11:20:47;5.50;99.90
37938;DHT22;23763;48.130;11.602;2023-04-03T11:23:22;5.70;99.90
37938;DHT22;23763;48.130;11.602;2023-04-03T11:25:53;5.80;99.90
37938;DHT22;23763;48.130;11.602;2023-04-03T11:28:19;6.00;99.90
37938;DHT22;23763;48.130;11.602;2023-04-03T11:31:01;6.20;99.90
37938;DHT22;23763;48.130;11.602;2023-04-03T11:36:19;6.70;99.90
37938;DHT22;23763;48.130;11.602;2023-04-03T11:38:49;6.80;99.90
37938;DHT22;23763;48.130;11.602;2023-04-03T11:41:16;6.90;99.90
37938;DHT22;23763;48.130;11.602;2023-04-03T11:44:25;7.10;99.90
37938;DHT22;23763;48.130;11.602;2023-04-03T11:46:57;7.00;99.90
37938;DHT22;23763;48.130;11.602;2023-04-03T11:58:03;6.90;99.90
37938;DHT22;23763;48.130;11.602;2023-04-03T12:16:26;7.70;99.90
37938;DHT22;23763;48.130;11.602;2023-04-03T12:24:28;7.00;99.90
37938;DHT22;23763;48.130;11.602;2023-04-03T12:32:35;6.80;99.90
37938;DHT22;23763;48.130;11.602;2023-04-03T12:35:37;7.10;99.90
37938;DHT22;23763;48.130;11.602;2023-04-03T12:41:25;7.50;99.90
37938;DHT22;23763;48.130;11.602;2023-04-03T12:46:38;7.50;99.90
37938;DHT22;23763;48.130;11.602;2023-04-03T12:49:35;7.40;99.90
37938;DHT22;23763;48.130;11.602;2023-04-03T12:52:05;7.40;99.90
37938;DHT22;23763;48.130;11.602;2023-04-03T12:54:38;7.50;99.80
37938;DHT22;23763;48.130;11.602;2023-04-03T12:57:12;7.50;99.90
37938;DHT22;23763;48.130;11.602;2023-04-03T12:59:41;7.60;99.70
37938;DHT22;23763;48.130;11.602;2023-04-03T13:02:31;7.60;99.90
37938;DHT22;23763;48.130;11.602;2023-04-03T13:04:58;7.80;99.90
37938;DHT22;23763;48.130;11.602;2023-04-03T13:07:31;7.90;99.40
37938;DHT22;23763;48.130;11.602;2023-04-03T13:12:53;8.00;99.30
37938;DHT22;23763;48.130;11.602;2023-04-03T13:15:30;7.90;99.20
37938;DHT22;23763;48.130;11.602;2023-04-03T13:17:57;7.80;97.40
37938;DHT22;23763;48.130;11.602;2023-04-03T13:20:27;7.80;96.90
37938;DHT22;23763;48.130;11.602;2023-04-03T13:22:59;7.80;96.50
37938;DHT22;23763;48.130;11.602;2023-04-03T13:25:29;7.80;96.70
37938;DHT22;23763;48.130;11.602;2023-04-03T13:27:56;8.00;96.70
37938;DHT22;23763;48.130;11.602;2023-04-03T13:32:52;8.10;96.60
37938;DHT22;23763;48.130;11.602;2023-04-03T13:35:44;8.00;97.10
37938;DHT22;23763;48.130;11.602;2023-04-03T13:41:21;8.10;96.30
37938;DHT22;23763;48.130;11.602;2023-04-03T13:43:48;8.00;96.70
37938;DHT22;23763;48.130;11.602;2023-04-03T13:48:51;8.00;97.10
37938;DHT22;23763;48.130;11.602;2023-04-03T13:51:27;7.80;96.20
37938;DHT22;23763;48.130;11.602;2023-04-03T13:54:00;7.70;96.30
37938;DHT22;23763;48.130;11.602;2023-04-03T13:56:40;7.70;96.70
37938;DHT22;23763;48.130;11.602;2023-04-03T14:01:55;7.70;96.20
37938;DHT22;23763;48.130;11.602;2023-04-03T14:04:27;7.60;96.20
37938;DHT22;23763;48.130;11.602;2023-04-03T14:06:56;7.70;96.30
37938;DHT22;23763;48.130;11.602;2023-04-03T14:09:25;7.90;95.70
37938;DHT22;23763;48.130;11.602;2023-04-03T14:11:54;8.00;94.90
37938;DHT22;23763;48.130;11.602;2023-04-03T14:14:27;7.90;94.80
37938;DHT22;23763;48.130;11.602;2023-04-03T14:16:58;8.00;94.40
37938;DHT22;23763;48.130;11.602;2023-04-03T14:19:31;8.10;94.30
37938;DHT22;23763;48.130;11.602;2023-04-03T14:21:58;8.20;93.80
37938;DHT22;23763;48.130;11.602;2023-04-03T14:24:24;8.40;93.50
37938;DHT22;23763;48.130;11.602;2023-04-03T14:26:52;8.40;93.60
37938;DHT22;23763;48.130;11.602;2023-04-03T14:29:19;8.40;92.80
37938;DHT22;23763;48.130;11.602;2023-04-03T14:31:46;8.20;92.50
37938;DHT22;23763;48.130;11.602;2023-04-03T14:34:16;8.20;93.30
37938;DHT22;23763;48.130;11.602;2023-04-03T14:36:43;8.40;93.00
37938;DHT22;23763;48.130;11.602;2023-04-03T14:39:16;8.30;92.00
37938;DHT22;23763;48.130;11.602;2023-04-03T14:41:43;8.20;92.30
37938;DHT22;23763;48.130;11.602;2023-04-03T14:44:08;8.00;91.80
37938;DHT22;23763;48.130;11.602;2023-04-03T14:46:41;7.80;91.80
37938;DHT22;23763;48.130;11.602;2023-04-03T14:49:22;7.30;92.60
37938;DHT22;23763;48.130;11.602;2023-04-03T14:51:51;7.10;92.90
37938;DHT22;23763;48.130;11.602;2023-04-03T14:54:19;6.90;93.20
37938;DHT22;23763;48.130;11.602;2023-04-03T14:56:51;6.70;93.40
37938;DHT22;23763;48.130;11.602;2023-04-03T14:59:16;6.90;93.50
37938;DHT22;23763;48.130;11.602;2023-04-03T15:01:45;7.00;93.00
37938;DHT22;23763;48.130;11.602;2023-04-03T15:04:16;7.20;92.40
37938;DHT22;23763;48.130;11.602;2023-04-03T15:06:42;7.30;92.70
37938;DHT22;23763;48.130;11.602;2023-04-03T15:09:25;7.40;92.80
37938;DHT22;23763;48.130;11.602;2023-04-03T15:11:53;7.30;92.40
37938;DHT22;23763;48.130;11.602;2023-04-03T15:14:19;7.20;92.10
37938;DHT22;23763;48.130;11.602;2023-04-03T15:16:45;7.20;91.80
37938;DHT22;23763;48.130;11.602;2023-04-03T15:19:11;6.90;91.20
37938;DHT22;23763;48.130;11.602;2023-04-03T15:21:37;6.90;91.30
37938;DHT22;23763;48.130;11.602;2023-04-03T15:24:05;6.60;91.20
37938;DHT22;23763;48.130;11.602;2023-04-03T15:26:31;6.50;90.80
37938;DHT22;23763;48.130;11.602;2023-04-03T15:28:59;6.40;91.30
37938;DHT22;23763;48.130;11.602;2023-04-03T15:31:27;6.40;91.60
37938;DHT22;23763;48.130;11.602;2023-04-03T15:33:53;6.40;91.60
37938;DHT22;23763;48.130;11.602;2023-04-03T15:36:20;6.50;91.10
37938;DHT22;23763;48.130;11.602;2023-04-03T15:38:46;6.50;91.10
37938;DHT22;23763;48.130;11.602;2023-04-03T15:41:12;6.50;91.60
37938;DHT22;23763;48.130;11.602;2023-04-03T15:43:39;6.70;91.60
37938;DHT22;23763;48.130;11.602;2023-04-03T15:46:06;6.50;91.10
37938;DHT22;23763;48.130;11.602;2023-04-03T15:48:32;6.50;91.10
37938;DHT22;23763;48.130;11.602;2023-04-03T15:50:58;6.40;90.40
37938;DHT22;23763;48.130;11.602;2023-04-03T15:53:25;6.40;89.60
37938;DHT22;23763;48.130;11.602;2023-04-03T15:55:50;6.30;89.90
37938;DHT22;23763;48.130;11.602;2023-04-03T15:58:16;6.10;89.30
37938;DHT22;23763;48.130;11.602;2023-04-03T16:00:44;6.10;88.60
37938;DHT22;23763;48.130;11.602;2023-04-03T16:03:12;6.10;89.80
37938;DHT22;23763;48.130;11.602;2023-04-03T16:05:38;6.10;89.90
37938;DHT22;23763;48.130;11.602;2023-04-03T16:08:05;6.00;89.90
37938;DHT22;23763;48.130;11.602;2023-04-03T16:10:33;6.00;90.00
37938;DHT22;23763;48.130;11.602;2023-04-03T16:12:58;6.00;90.40
37938;DHT22;23763;48.130;11.602;2023-04-03T16:15:25;6.10;91.00
37938;DHT22;23763;48.130;11.602;2023-04-03T16:17:52;5.90;91.60
37938;DHT22;23763;48.130;11.602;2023-04-03T16:20:18;5.80;91.60
37938;DHT22;23763;48.130;11.602;2023-04-03T16:22:44;5.80;91.80
37938;DHT22;23763;48.130;11.602;2023-04-03T16:25:10;5.80;92.20
37938;DHT22;23763;48.130;11.602;2023-04-03T16:27:35;5.70;92.30
37938;DHT22;23763;48.130;11.602;2023-04-03T16:30:21;5.70;92.50
37938;DHT22;23763;48.130;11.602;2023-04-03T16:32:56;5.70;92.20
37938;DHT22;23763;48.130;11.602;2023-04-03T16:35:22;5.70;92.20
37938;DHT22;23763;48.130;11.602;2023-04-03T16:37:53;5.80;92.10
37938;DHT22;23763;48.130;11.602;2023-04-03T16:40:18;5.70;91.80
37938;DHT22;23763;48.130;11.602;2023-04-03T16:42:44;5.80;92.00
37938;DHT22;23763;48.130;11.602;2023-04-03T16:45:11;5.80;91.90
37938;DHT22;23763;48.130;11.602;2023-04-03T16:47:37;5.90;91.60
37938;DHT22;23763;48.130;11.602;2023-04-03T16:50:03;6.00;91.50
37938;DHT22;23763;48.130;11.602;2023-04-03T16:52:28;5.90;91.40
37938;DHT22;23763;48.130;11.602;2023-04-03T16:54:54;5.90;91.20
37938;DHT22;23763;48.130;11.602;2023-04-03T16:57:21;5.90;90.90
37938;DHT22;23763;48.130;11.602;2023-04-03T16:59:47;5.80;90.90
37938;DHT22;23763;48.130;11.602;2023-04-03T17:02:13;5.80;91.40
37938;DHT22;23763;48.130;11.602;2023-04-03T17:04:38;5.80;92.00
37938;DHT22;23763;48.130;11.602;2023-04-03T17:07:04;5.80;92.20
37938;DHT22;23763;48.130;11.602;2023-04-03T17:09:32;5.70;92.40
37938;DHT22;23763;48.130;11.602;2023-04-03T17:11:58;5.70;92.50
37938;DHT22;23763;48.130;11.602;2023-04-03T17:14:24;5.70;92.40
37938;DHT22;23763;48.130;11.602;2023-04-03T17:16:50;5.60;92.50
37938;DHT22;23763;48.130;11.602;2023-04-03T17:19:16;5.60;92.40
37938;DHT22;23763;48.130;11.602;2023-04-03T17:21:43;5.50;92.70
37938;DHT22;23763;48.130;11.602;2023-04-03T17:24:10;5.50;93.00
37938;DHT22;23763;48.130;11.602;2023-04-03T17:26:41;5.30;93.10
37938;DHT22;23763;48.130;11.602;2023-04-03T17:29:07;5.40;93.80